sensor_id;sensor_type;location;lat;lon;timestamp;P1;durP1;ratioP1;P2;durP2;ratioP2
51907;SDS011;39320;53.214;6.556;2023-07-16T00:02:24;2.63;;;1.45;;
51907;SDS011;39320;53.214;6.556;2023-07-16T00:04:50;4.38;;;1.77;;
51907;SDS011;39320;53.214;6.556;2023-07-16T00:07:15;4.18;;;1.65;;
51907;SDS011;39320;53.214;6.556;2023-07-16T00:09:42;3.75;;;2.00;;
51907;SDS011;39320;53.214;6.556;2023-07-16T00:12:08;4.18;;;1.73;;
51907;SDS011;39320;53.214;6.556;2023-07-16T00:14:34;4.05;;;1.30;;
51907;SDS011;39320;53.214;6.556;2023-07-16T00:17:00;4.18;;;1.98;;
51907;SDS011;39320;53.214;6.556;2023-07-16T00:19:26;6.07;;;1.92;;
51907;SDS011;39320;53.214;6.556;2023-07-16T00:21:51;5.93;;;2.00;;
51907;SDS011;39320;53.214;6.556;2023-07-16T00:24:17;5.68;;;1.73;;
51907;SDS011;39320;53.214;6.556;2023-07-16T00:26:43;5.32;;;1.75;;
51907;SDS011;39320;53.214;6.556;2023-07-16T00:29:08;3.25;;;1.58;;
51907;SDS011;39320;53.214;6.556;2023-07-16T00:31:34;5.78;;;2.20;;
51907;SDS011;39320;53.214;6.556;2023-07-16T00:34:00;6.43;;;2.15;;
51907;SDS011;39320;53.214;6.556;2023-07-16T00:36:26;4.32;;;1.90;;
51907;SDS011;39320;53.214;6.556;2023-07-16T00:38:51;5.15;;;1.90;;
51907;SDS011;39320;53.214;6.556;2023-07-16T00:41:17;4.32;;;1.83;;
51907;SDS011;39320;53.214;6.556;2023-07-16T00:43:43;4.88;;;1.60;;
51907;SDS011;39320;53.214;6.556;2023-07-16T00:46:08;6.47;;;1.80;;
51907;SDS011;39320;53.214;6.556;2023-07-16T00:48:35;3.75;;;1.90;;
51907;SDS011;39320;53.214;6.556;2023-07-16T00:51:02;5.18;;;2.00;;
51907;SDS011;39320;53.214;6.556;2023-07-16T00:53:29;4.10;;;1.75;;
51907;SDS011;39320;53.214;6.556;2023-07-16T00:55:55;6.07;;;2.00;;
51907;SDS011;39320;53.214;6.556;2023-07-16T00:58:21;3.70;;;1.55;;
51907;SDS011;39320;53.214;6.556;2023-07-16T01:00:47;3.05;;;1.77;;
51907;SDS011;39320;53.214;6.556;2023-07-16T01:03:13;4.35;;;1.88;;
51907;SDS011;39320;53.214;6.556;2023-07-16T01:05:50;5.43;;;2.08;;
51907;SDS011;39320;53.214;6.556;2023-07-16T01:08:30;5.43;;;1.90;;
51907;SDS011;39320;53.214;6.556;2023-07-16T01:11:03;3.97;;;1.75;;
51907;SDS011;39320;53.214;6.556;2023-07-16T01:13:29;5.45;;;1.98;;
51907;SDS011;39320;53.214;6.556;2023-07-16T01:15:56;4.57;;;1.92;;
51907;SDS011;39320;53.214;6.556;2023-07-16T01:18:22;5.28;;;2.33;;
51907;SDS011;39320;53.214;6.556;2023-07-16T01:20:48;7.20;;;2.65;;
51907;SDS011;39320;53.214;6.556;2023-07-16T01:29:18;4.30;;;2.42;;
51907;SDS011;39320;53.214;6.556;2023-07-16T01:31:53;6.07;;;2.03;;
51907;SDS011;39320;53.214;6.556;2023-07-16T01:34:20;3.83;;;1.73;;
51907;SDS011;39320;53.214;6.556;2023-07-16T01:36:47;5.10;;;2.00;;
51907;SDS011;39320;53.214;6.556;2023-07-16T01:39:14;3.75;;;1.95;;
51907;SDS011;39320;53.214;6.556;2023-07-16T01:41:41;4.80;;;1.83;;
51907;SDS011;39320;53.214;6.556;2023-07-16T01:44:06;5.95;;;2.70;;
51907;SDS011;39320;53.214;6.556;2023-07-16T01:46:32;2.95;;;1.75;;
51907;SDS011;39320;53.214;6.556;2023-07-16T01:48:58;3.97;;;1.95;;
51907;SDS011;39320;53.214;6.556;2023-07-16T01:51:24;4.18;;;2.03;;
51907;SDS011;39320;53.214;6.556;2023-07-16T01:53:50;4.53;;;1.92;;
51907;SDS011;39320;53.214;6.556;2023-07-16T01:56:16;3.40;;;1.70;;
51907;SDS011;39320;53.214;6.556;2023-07-16T01:58:42;3.60;;;1.67;;
51907;SDS011;39320;53.214;6.556;2023-07-16T02:01:07;5.38;;;2.03;;
51907;SDS011;39320;53.214;6.556;2023-07-16T02:03:36;4.93;;;1.92;;
51907;SDS011;39320;53.214;6.556;2023-07-16T02:06:01;6.78;;;2.15;;
51907;SDS011;39320;53.214;6.556;2023-07-16T02:08:27;4.13;;;1.75;;
51907;SDS011;39320;53.214;6.556;2023-07-16T02:10:53;3.88;;;1.65;;
51907;SDS011;39320;53.214;6.556;2023-07-16T02:13:19;6.90;;;1.92;;
51907;SDS011;39320;53.214;6.556;2023-07-16T02:15:44;5.22;;;1.63;;
51907;SDS011;39320;53.214;6.556;2023-07-16T02:18:10;5.65;;;2.08;;
51907;SDS011;39320;53.214;6.556;2023-07-16T02:20:36;4.65;;;1.92;;
51907;SDS011;39320;53.214;6.556;2023-07-16T02:23:02;4.07;;;1.80;;
51907;SDS011;39320;53.214;6.556;2023-07-16T02:25:27;4.32;;;2.13;;
51907;SDS011;39320;53.214;6.556;2023-07-16T02:27:53;4.32;;;1.90;;
51907;SDS011;39320;53.214;6.556;2023-07-16T02:30:19;4.10;;;1.75;;
51907;SDS011;39320;53.214;6.556;2023-07-16T02:32:45;3.45;;;1.95;;
51907;SDS011;39320;53.214;6.556;2023-07-16T02:35:11;4.88;;;2.40;;
51907;SDS011;39320;53.214;6.556;2023-07-16T02:37:36;4.88;;;2.45;;
51907;SDS011;39320;53.214;6.556;2023-07-16T02:40:02;5.80;;;2.28;;
51907;SDS011;39320;53.214;6.556;2023-07-16T02:42:28;4.93;;;2.20;;
51907;SDS011;39320;53.214;6.556;2023-07-16T02:44:54;4.63;;;2.28;;
51907;SDS011;39320;53.214;6.556;2023-07-16T02:47:20;4.22;;;2.40;;
51907;SDS011;39320;53.214;6.556;2023-07-16T02:49:46;3.53;;;1.83;;
51907;SDS011;39320;53.214;6.556;2023-07-16T02:52:11;4.88;;;2.22;;
51907;SDS011;39320;53.214;6.556;2023-07-16T02:54:37;4.13;;;2.35;;
51907;SDS011;39320;53.214;6.556;2023-07-16T02:57:03;5.60;;;2.42;;
51907;SDS011;39320;53.214;6.556;2023-07-16T02:59:30;4.35;;;2.25;;
51907;SDS011;39320;53.214;6.556;2023-07-16T03:01:56;5.30;;;2.50;;
51907;SDS011;39320;53.214;6.556;2023-07-16T03:04:21;3.95;;;2.25;;
51907;SDS011;39320;53.214;6.556;2023-07-16T03:06:47;4.53;;;2.78;;
51907;SDS011;39320;53.214;6.556;2023-07-16T03:09:13;5.45;;;2.45;;
51907;SDS011;39320;53.214;6.556;2023-07-16T03:11:38;5.00;;;2.20;;
51907;SDS011;39320;53.214;6.556;2023-07-16T03:14:04;4.10;;;2.30;;
51907;SDS011;39320;53.214;6.556;2023-07-16T03:16:30;4.88;;;2.80;;
51907;SDS011;39320;53.214;6.556;2023-07-16T03:18:56;6.57;;;2.47;;
51907;SDS011;39320;53.214;6.556;2023-07-16T03:21:22;4.70;;;2.30;;
51907;SDS011;39320;53.214;6.556;2023-07-16T03:23:48;3.85;;;2.03;;
51907;SDS011;39320;53.214;6.556;2023-07-16T03:26:13;5.75;;;2.75;;
51907;SDS011;39320;53.214;6.556;2023-07-16T03:28:39;6.80;;;2.40;;
51907;SDS011;39320;53.214;6.556;2023-07-16T03:31:05;5.30;;;2.47;;
51907;SDS011;39320;53.214;6.556;2023-07-16T03:33:30;6.72;;;2.47;;
51907;SDS011;39320;53.214;6.556;2023-07-16T03:35:56;4.38;;;2.55;;
51907;SDS011;39320;53.214;6.556;2023-07-16T03:38:22;4.78;;;2.70;;
51907;SDS011;39320;53.214;6.556;2023-07-16T03:40:48;3.20;;;2.28;;
51907;SDS011;39320;53.214;6.556;2023-07-16T03:43:15;6.40;;;3.00;;
51907;SDS011;39320;53.214;6.556;2023-07-16T03:45:41;7.22;;;2.70;;
51907;SDS011;39320;53.214;6.556;2023-07-16T03:48:07;6.68;;;2.80;;
51907;SDS011;39320;53.214;6.556;2023-07-16T03:50:33;3.85;;;2.40;;
51907;SDS011;39320;53.214;6.556;2023-07-16T03:52:59;5.57;;;2.40;;
51907;SDS011;39320;53.214;6.556;2023-07-16T03:55:25;5.25;;;2.88;;
51907;SDS011;39320;53.214;6.556;2023-07-16T03:57:51;5.13;;;2.60;;
51907;SDS011;39320;53.214;6.556;2023-07-16T04:00:17;7.05;;;2.28;;
51907;SDS011;39320;53.214;6.556;2023-07-16T04:02:43;5.15;;;2.78;;
51907;SDS011;39320;53.214;6.556;2023-07-16T04:05:09;5.63;;;3.22;;
51907;SDS011;39320;53.214;6.556;2023-07-16T04:07:35;4.90;;;2.97;;
51907;SDS011;39320;53.214;6.556;2023-07-16T04:10:01;6.20;;;2.60;;
51907;SDS011;39320;53.214;6.556;2023-07-16T04:12:27;4.95;;;3.00;;
51907;SDS011;39320;53.214;6.556;2023-07-16T04:14:56;5.15;;;2.95;;
51907;SDS011;39320;53.214;6.556;2023-07-16T04:17:23;6.22;;;2.80;;
51907;SDS011;39320;53.214;6.556;2023-07-16T04:19:49;5.07;;;2.97;;
51907;SDS011;39320;53.214;6.556;2023-07-16T04:22:15;10.13;;;3.28;;
51907;SDS011;39320;53.214;6.556;2023-07-16T04:24:41;3.53;;;2.30;;
51907;SDS011;39320;53.214;6.556;2023-07-16T04:27:07;7.57;;;3.20;;
51907;SDS011;39320;53.214;6.556;2023-07-16T04:29:33;4.90;;;2.75;;
51907;SDS011;39320;53.214;6.556;2023-07-16T04:31:58;8.30;;;3.35;;
51907;SDS011;39320;53.214;6.556;2023-07-16T04:34:24;5.15;;;2.95;;
51907;SDS011;39320;53.214;6.556;2023-07-16T04:36:50;6.55;;;3.00;;
51907;SDS011;39320;53.214;6.556;2023-07-16T04:39:16;6.00;;;2.75;;
51907;SDS011;39320;53.214;6.556;2023-07-16T04:41:41;5.45;;;3.10;;
51907;SDS011;39320;53.214;6.556;2023-07-16T04:44:07;5.75;;;2.75;;
51907;SDS011;39320;53.214;6.556;2023-07-16T04:46:33;5.40;;;3.10;;
51907;SDS011;39320;53.214;6.556;2023-07-16T04:48:59;4.53;;;3.15;;
51907;SDS011;39320;53.214;6.556;2023-07-16T04:51:25;7.68;;;3.28;;
51907;SDS011;39320;53.214;6.556;2023-07-16T04:53:50;7.45;;;3.45;;
51907;SDS011;39320;53.214;6.556;2023-07-16T04:56:16;4.88;;;3.30;;
51907;SDS011;39320;53.214;6.556;2023-07-16T04:58:42;5.65;;;3.60;;
51907;SDS011;39320;53.214;6.556;2023-07-16T05:01:08;6.13;;;2.83;;
51907;SDS011;39320;53.214;6.556;2023-07-16T05:03:35;5.68;;;2.95;;
51907;SDS011;39320;53.214;6.556;2023-07-16T05:06:01;8.90;;;3.65;;
51907;SDS011;39320;53.214;6.556;2023-07-16T05:08:27;5.25;;;3.17;;
51907;SDS011;39320;53.214;6.556;2023-07-16T05:10:54;5.22;;;3.20;;
51907;SDS011;39320;53.214;6.556;2023-07-16T05:13:19;6.15;;;3.33;;
51907;SDS011;39320;53.214;6.556;2023-07-16T05:15:45;7.50;;;3.20;;
51907;SDS011;39320;53.214;6.556;2023-07-16T05:18:11;5.65;;;3.10;;
51907;SDS011;39320;53.214;6.556;2023-07-16T05:20:37;6.35;;;3.78;;
51907;SDS011;39320;53.214;6.556;2023-07-16T05:23:03;7.80;;;3.45;;
51907;SDS011;39320;53.214;6.556;2023-07-16T05:25:29;6.38;;;3.42;;
51907;SDS011;39320;53.214;6.556;2023-07-16T05:27:55;6.07;;;3.35;;
51907;SDS011;39320;53.214;6.556;2023-07-16T05:30:20;6.68;;;3.35;;
51907;SDS011;39320;53.214;6.556;2023-07-16T05:32:46;5.18;;;3.10;;
51907;SDS011;39320;53.214;6.556;2023-07-16T05:35:12;5.32;;;3.30;;
51907;SDS011;39320;53.214;6.556;2023-07-16T05:37:38;5.53;;;2.63;;
51907;SDS011;39320;53.214;6.556;2023-07-16T05:40:04;8.07;;;3.38;;
51907;SDS011;39320;53.214;6.556;2023-07-16T05:42:31;6.78;;;2.75;;
51907;SDS011;39320;53.214;6.556;2023-07-16T05:44:56;5.88;;;2.83;;
51907;SDS011;39320;53.214;6.556;2023-07-16T05:47:22;4.55;;;2.78;;
51907;SDS011;39320;53.214;6.556;2023-07-16T05:49:48;5.97;;;2.90;;
51907;SDS011;39320;53.214;6.556;2023-07-16T05:52:13;6.57;;;3.08;;
51907;SDS011;39320;53.214;6.556;2023-07-16T05:54:39;4.95;;;2.72;;
51907;SDS011;39320;53.214;6.556;2023-07-16T05:57:05;4.88;;;2.63;;
51907;SDS011;39320;53.214;6.556;2023-07-16T05:59:31;5.07;;;2.47;;
51907;SDS011;39320;53.214;6.556;2023-07-16T06:02:01;4.25;;;2.42;;
51907;SDS011;39320;53.214;6.556;2023-07-16T06:04:27;4.00;;;2.78;;
51907;SDS011;39320;53.214;6.556;2023-07-16T06:06:53;4.60;;;3.03;;
51907;SDS011;39320;53.214;6.556;2023-07-16T06:09:18;5.78;;;2.50;;
51907;SDS011;39320;53.214;6.556;2023-07-16T06:11:47;4.38;;;2.90;;
51907;SDS011;39320;53.214;6.556;2023-07-16T06:14:13;5.40;;;2.47;;
51907;SDS011;39320;53.214;6.556;2023-07-16T06:16:39;4.10;;;2.67;;
51907;SDS011;39320;53.214;6.556;2023-07-16T06:19:05;5.78;;;2.65;;
51907;SDS011;39320;53.214;6.556;2023-07-16T06:21:30;5.13;;;3.22;;
51907;SDS011;39320;53.214;6.556;2023-07-16T06:23:56;6.22;;;2.58;;
51907;SDS011;39320;53.214;6.556;2023-07-16T06:26:22;6.63;;;2.95;;
51907;SDS011;39320;53.214;6.556;2023-07-16T06:28:47;7.03;;;3.92;;
51907;SDS011;39320;53.214;6.556;2023-07-16T06:31:15;6.82;;;2.88;;
51907;SDS011;39320;53.214;6.556;2023-07-16T06:33:41;5.35;;;3.20;;
51907;SDS011;39320;53.214;6.556;2023-07-16T06:36:07;5.10;;;3.15;;
51907;SDS011;39320;53.214;6.556;2023-07-16T06:38:33;5.43;;;3.03;;
51907;SDS011;39320;53.214;6.556;2023-07-16T06:40:58;5.40;;;3.75;;
51907;SDS011;39320;53.214;6.556;2023-07-16T06:43:24;5.80;;;3.05;;
51907;SDS011;39320;53.214;6.556;2023-07-16T06:45:50;6.82;;;3.13;;
51907;SDS011;39320;53.214;6.556;2023-07-16T06:48:16;6.55;;;3.17;;
51907;SDS011;39320;53.214;6.556;2023-07-16T06:50:42;4.03;;;2.80;;
51907;SDS011;39320;53.214;6.556;2023-07-16T06:53:08;6.07;;;3.72;;
51907;SDS011;39320;53.214;6.556;2023-07-16T06:55:34;5.43;;;3.20;;
51907;SDS011;39320;53.214;6.556;2023-07-16T06:58:00;6.20;;;3.40;;
51907;SDS011;39320;53.214;6.556;2023-07-16T07:00:26;8.75;;;2.92;;
51907;SDS011;39320;53.214;6.556;2023-07-16T07:02:52;5.93;;;2.88;;
51907;SDS011;39320;53.214;6.556;2023-07-16T07:05:18;5.75;;;3.25;;
51907;SDS011;39320;53.214;6.556;2023-07-16T07:07:44;6.25;;;3.50;;
51907;SDS011;39320;53.214;6.556;2023-07-16T07:10:11;5.78;;;3.20;;
51907;SDS011;39320;53.214;6.556;2023-07-16T07:12:37;4.95;;;3.25;;
51907;SDS011;39320;53.214;6.556;2023-07-16T07:15:07;6.22;;;3.38;;
51907;SDS011;39320;53.214;6.556;2023-07-16T07:17:33;3.67;;;3.05;;
51907;SDS011;39320;53.214;6.556;2023-07-16T07:20:00;7.70;;;2.60;;
51907;SDS011;39320;53.214;6.556;2023-07-16T07:22:30;7.82;;;3.80;;
51907;SDS011;39320;53.214;6.556;2023-07-16T07:24:56;4.82;;;3.00;;
51907;SDS011;39320;53.214;6.556;2023-07-16T07:27:22;8.27;;;3.97;;
51907;SDS011;39320;53.214;6.556;2023-07-16T07:29:48;6.07;;;3.13;;
51907;SDS011;39320;53.214;6.556;2023-07-16T07:32:18;7.45;;;3.30;;
51907;SDS011;39320;53.214;6.556;2023-07-16T07:34:45;5.00;;;3.60;;
51907;SDS011;39320;53.214;6.556;2023-07-16T07:37:11;6.80;;;3.40;;
51907;SDS011;39320;53.214;6.556;2023-07-16T07:39:37;5.95;;;3.25;;
51907;SDS011;39320;53.214;6.556;2023-07-16T07:42:03;6.75;;;3.22;;
51907;SDS011;39320;53.214;6.556;2023-07-16T07:44:29;4.95;;;2.80;;
51907;SDS011;39320;53.214;6.556;2023-07-16T07:46:54;6.50;;;3.20;;
51907;SDS011;39320;53.214;6.556;2023-07-16T07:49:20;6.03;;;3.38;;
51907;SDS011;39320;53.214;6.556;2023-07-16T07:51:46;5.65;;;3.33;;
51907;SDS011;39320;53.214;6.556;2023-07-16T07:54:14;6.93;;;2.92;;
51907;SDS011;39320;53.214;6.556;2023-07-16T07:56:40;3.88;;;2.83;;
51907;SDS011;39320;53.214;6.556;2023-07-16T07:59:09;6.22;;;3.45;;
51907;SDS011;39320;53.214;6.556;2023-07-16T08:01:35;5.85;;;2.95;;
51907;SDS011;39320;53.214;6.556;2023-07-16T08:04:01;4.97;;;3.42;;
51907;SDS011;39320;53.214;6.556;2023-07-16T08:06:26;5.93;;;3.10;;
51907;SDS011;39320;53.214;6.556;2023-07-16T08:08:52;4.65;;;2.97;;
51907;SDS011;39320;53.214;6.556;2023-07-16T08:11:18;4.93;;;3.10;;
51907;SDS011;39320;53.214;6.556;2023-07-16T08:13:44;4.55;;;3.15;;
51907;SDS011;39320;53.214;6.556;2023-07-16T08:16:09;5.10;;;3.10;;
51907;SDS011;39320;53.214;6.556;2023-07-16T08:18:35;5.45;;;3.20;;
51907;SDS011;39320;53.214;6.556;2023-07-16T08:21:01;6.88;;;3.38;;
51907;SDS011;39320;53.214;6.556;2023-07-16T08:23:26;6.68;;;2.80;;
51907;SDS011;39320;53.214;6.556;2023-07-16T08:25:52;8.48;;;3.05;;
51907;SDS011;39320;53.214;6.556;2023-07-16T08:28:18;4.15;;;2.72;;
51907;SDS011;39320;53.214;6.556;2023-07-16T08:30:46;4.93;;;3.22;;
51907;SDS011;39320;53.214;6.556;2023-07-16T08:33:12;6.10;;;3.20;;
51907;SDS011;39320;53.214;6.556;2023-07-16T08:35:39;6.20;;;3.00;;
51907;SDS011;39320;53.214;6.556;2023-07-16T08:38:06;4.55;;;3.08;;
51907;SDS011;39320;53.214;6.556;2023-07-16T08:40:38;4.85;;;2.72;;
51907;SDS011;39320;53.214;6.556;2023-07-16T08:43:07;5.18;;;3.50;;
51907;SDS011;39320;53.214;6.556;2023-07-16T08:45:35;6.47;;;3.80;;
51907;SDS011;39320;53.214;6.556;2023-07-16T08:48:11;6.45;;;3.40;;
51907;SDS011;39320;53.214;6.556;2023-07-16T08:50:37;6.43;;;3.92;;
51907;SDS011;39320;53.214;6.556;2023-07-16T08:53:06;5.60;;;3.70;;
51907;SDS011;39320;53.214;6.556;2023-07-16T08:55:33;7.13;;;3.15;;
51907;SDS011;39320;53.214;6.556;2023-07-16T08:58:01;5.45;;;3.03;;
51907;SDS011;39320;53.214;6.556;2023-07-16T09:00:29;6.15;;;3.78;;
51907;SDS011;39320;53.214;6.556;2023-07-16T09:02:55;8.30;;;4.60;;
51907;SDS011;39320;53.214;6.556;2023-07-16T09:05:21;5.45;;;3.25;;
51907;SDS011;39320;53.214;6.556;2023-07-16T09:07:48;6.82;;;3.33;;
51907;SDS011;39320;53.214;6.556;2023-07-16T09:10:14;5.82;;;3.10;;
51907;SDS011;39320;53.214;6.556;2023-07-16T09:12:43;6.78;;;3.25;;
51907;SDS011;39320;53.214;6.556;2023-07-16T09:15:10;8.60;;;3.45;;
51907;SDS011;39320;53.214;6.556;2023-07-16T09:17:37;5.82;;;3.53;;
51907;SDS011;39320;53.214;6.556;2023-07-16T09:20:03;5.95;;;3.00;;
51907;SDS011;39320;53.214;6.556;2023-07-16T09:22:33;6.28;;;3.08;;
51907;SDS011;39320;53.214;6.556;2023-07-16T09:25:02;5.25;;;3.33;;
51907;SDS011;39320;53.214;6.556;2023-07-16T09:27:29;7.95;;;3.13;;
51907;SDS011;39320;53.214;6.556;2023-07-16T09:29:55;9.23;;;3.42;;
51907;SDS011;39320;53.214;6.556;2023-07-16T09:32:21;4.57;;;3.33;;
51907;SDS011;39320;53.214;6.556;2023-07-16T09:34:50;4.35;;;3.00;;
51907;SDS011;39320;53.214;6.556;2023-07-16T09:37:17;5.57;;;3.33;;
51907;SDS011;39320;53.214;6.556;2023-07-16T09:39:43;6.40;;;3.80;;
51907;SDS011;39320;53.214;6.556;2023-07-16T09:42:11;5.60;;;3.08;;
51907;SDS011;39320;53.214;6.556;2023-07-16T09:44:38;5.00;;;3.05;;
51907;SDS011;39320;53.214;6.556;2023-07-16T09:47:06;6.78;;;3.30;;
51907;SDS011;39320;53.214;6.556;2023-07-16T09:49:35;5.13;;;2.78;;
51907;SDS011;39320;53.214;6.556;2023-07-16T09:52:01;5.88;;;2.75;;
51907;SDS011;39320;53.214;6.556;2023-07-16T09:54:27;6.82;;;3.53;;
51907;SDS011;39320;53.214;6.556;2023-07-16T09:56:58;3.50;;;2.85;;
51907;SDS011;39320;53.214;6.556;2023-07-16T09:59:30;7.40;;;3.22;;
51907;SDS011;39320;53.214;6.556;2023-07-16T10:01:57;5.10;;;3.25;;
51907;SDS011;39320;53.214;6.556;2023-07-16T10:04:23;5.50;;;2.95;;
51907;SDS011;39320;53.214;6.556;2023-07-16T10:15:11;6.72;;;3.58;;
51907;SDS011;39320;53.214;6.556;2023-07-16T10:17:30;5.50;;;2.97;;
51907;SDS011;39320;53.214;6.556;2023-07-16T10:19:57;4.18;;;3.05;;
51907;SDS011;39320;53.214;6.556;2023-07-16T10:25:03;9.35;;;3.30;;
51907;SDS011;39320;53.214;6.556;2023-07-16T10:27:47;3.83;;;2.67;;
51907;SDS011;39320;53.214;6.556;2023-07-16T10:30:14;5.28;;;3.20;;
51907;SDS011;39320;53.214;6.556;2023-07-16T10:32:41;4.93;;;3.13;;
51907;SDS011;39320;53.214;6.556;2023-07-16T10:35:08;5.38;;;3.08;;
51907;SDS011;39320;53.214;6.556;2023-07-16T10:37:34;6.03;;;3.13;;
51907;SDS011;39320;53.214;6.556;2023-07-16T10:40:01;4.07;;;2.45;;
51907;SDS011;39320;53.214;6.556;2023-07-16T10:42:31;4.72;;;2.72;;
51907;SDS011;39320;53.214;6.556;2023-07-16T10:45:01;5.75;;;2.75;;
51907;SDS011;39320;53.214;6.556;2023-07-16T10:47:30;7.47;;;2.63;;
51907;SDS011;39320;53.214;6.556;2023-07-16T10:49:57;5.22;;;3.10;;
51907;SDS011;39320;53.214;6.556;2023-07-16T10:52:23;7.32;;;3.00;;
51907;SDS011;39320;53.214;6.556;2023-07-16T10:54:52;5.45;;;3.05;;
51907;SDS011;39320;53.214;6.556;2023-07-16T10:57:23;6.97;;;3.05;;
51907;SDS011;39320;53.214;6.556;2023-07-16T10:59:53;4.60;;;3.35;;
51907;SDS011;39320;53.214;6.556;2023-07-16T11:02:21;6.07;;;2.90;;
51907;SDS011;39320;53.214;6.556;2023-07-16T11:04:48;5.15;;;2.45;;
51907;SDS011;39320;53.214;6.556;2023-07-16T11:07:14;5.32;;;3.13;;
51907;SDS011;39320;53.214;6.556;2023-07-16T11:12:14;5.75;;;2.97;;
51907;SDS011;39320;53.214;6.556;2023-07-16T11:14:44;4.25;;;3.08;;
51907;SDS011;39320;53.214;6.556;2023-07-16T11:17:12;3.90;;;2.50;;
51907;SDS011;39320;53.214;6.556;2023-07-16T11:19:39;6.60;;;2.85;;
51907;SDS011;39320;53.214;6.556;2023-07-16T11:22:06;5.85;;;2.47;;
51907;SDS011;39320;53.214;6.556;2023-07-16T11:24:38;5.70;;;2.70;;
51907;SDS011;39320;53.214;6.556;2023-07-16T11:27:12;4.88;;;2.70;;
51907;SDS011;39320;53.214;6.556;2023-07-16T11:29:52;5.32;;;2.60;;
51907;SDS011;39320;53.214;6.556;2023-07-16T11:34:59;5.65;;;2.80;;
51907;SDS011;39320;53.214;6.556;2023-07-16T11:37:28;3.42;;;2.30;;
51907;SDS011;39320;53.214;6.556;2023-07-16T11:42:28;4.10;;;2.92;;
51907;SDS011;39320;53.214;6.556;2023-07-16T11:44:55;4.47;;;2.40;;
51907;SDS011;39320;53.214;6.556;2023-07-16T11:47:22;3.47;;;1.92;;
51907;SDS011;39320;53.214;6.556;2023-07-16T11:49:48;4.10;;;2.42;;
51907;SDS011;39320;53.214;6.556;2023-07-16T11:52:14;7.60;;;2.97;;
51907;SDS011;39320;53.214;6.556;2023-07-16T11:54:44;3.45;;;2.20;;
51907;SDS011;39320;53.214;6.556;2023-07-16T11:57:09;4.05;;;2.60;;
51907;SDS011;39320;53.214;6.556;2023-07-16T11:59:35;5.43;;;2.70;;
51907;SDS011;39320;53.214;6.556;2023-07-16T12:02:01;4.53;;;2.80;;
51907;SDS011;39320;53.214;6.556;2023-07-16T12:04:28;4.65;;;3.15;;
51907;SDS011;39320;53.214;6.556;2023-07-16T12:06:53;6.55;;;3.35;;
51907;SDS011;39320;53.214;6.556;2023-07-16T12:09:19;5.85;;;3.13;;
51907;SDS011;39320;53.214;6.556;2023-07-16T12:11:45;5.03;;;3.20;;
51907;SDS011;39320;53.214;6.556;2023-07-16T12:14:11;5.65;;;3.08;;
51907;SDS011;39320;53.214;6.556;2023-07-16T12:16:38;5.80;;;3.60;;
51907;SDS011;39320;53.214;6.556;2023-07-16T12:19:05;7.28;;;3.25;;
51907;SDS011;39320;53.214;6.556;2023-07-16T12:21:32;6.80;;;3.80;;
51907;SDS011;39320;53.214;6.556;2023-07-16T12:23:57;4.68;;;3.28;;
51907;SDS011;39320;53.214;6.556;2023-07-16T12:26:23;7.43;;;3.50;;
51907;SDS011;39320;53.214;6.556;2023-07-16T12:28:49;6.07;;;3.53;;
51907;SDS011;39320;53.214;6.556;2023-07-16T12:31:15;5.25;;;3.95;;
51907;SDS011;39320;53.214;6.556;2023-07-16T12:33:42;6.53;;;3.90;;
51907;SDS011;39320;53.214;6.556;2023-07-16T12:36:08;5.50;;;3.67;;
51907;SDS011;39320;53.214;6.556;2023-07-16T12:38:33;9.85;;;3.70;;
51907;SDS011;39320;53.214;6.556;2023-07-16T12:40:59;5.35;;;3.63;;
51907;SDS011;39320;53.214;6.556;2023-07-16T12:43:25;6.28;;;4.22;;
51907;SDS011;39320;53.214;6.556;2023-07-16T12:45:51;6.47;;;4.00;;
51907;SDS011;39320;53.214;6.556;2023-07-16T12:48:17;6.50;;;3.60;;
51907;SDS011;39320;53.214;6.556;2023-07-16T12:50:43;4.97;;;2.95;;
51907;SDS011;39320;53.214;6.556;2023-07-16T12:53:08;5.40;;;3.50;;
51907;SDS011;39320;53.214;6.556;2023-07-16T12:55:34;5.78;;;3.33;;
51907;SDS011;39320;53.214;6.556;2023-07-16T12:58:00;4.90;;;3.30;;
51907;SDS011;39320;53.214;6.556;2023-07-16T13:00:26;6.70;;;3.28;;
51907;SDS011;39320;53.214;6.556;2023-07-16T13:02:52;6.50;;;3.20;;
51907;SDS011;39320;53.214;6.556;2023-07-16T13:05:18;6.72;;;3.33;;
51907;SDS011;39320;53.214;6.556;2023-07-16T13:07:43;7.63;;;2.92;;
51907;SDS011;39320;53.214;6.556;2023-07-16T13:10:09;7.43;;;3.90;;
51907;SDS011;39320;53.214;6.556;2023-07-16T13:12:36;6.50;;;3.10;;
51907;SDS011;39320;53.214;6.556;2023-07-16T13:15:02;5.05;;;3.15;;
51907;SDS011;39320;53.214;6.556;2023-07-16T13:17:28;6.55;;;2.97;;
51907;SDS011;39320;53.214;6.556;2023-07-16T13:19:54;3.92;;;2.58;;
51907;SDS011;39320;53.214;6.556;2023-07-16T13:22:26;5.22;;;2.47;;
51907;SDS011;39320;53.214;6.556;2023-07-16T13:24:52;4.53;;;2.72;;
51907;SDS011;39320;53.214;6.556;2023-07-16T13:27:21;4.05;;;2.63;;
51907;SDS011;39320;53.214;6.556;2023-07-16T13:29:48;4.32;;;2.30;;
51907;SDS011;39320;53.214;6.556;2023-07-16T13:32:15;3.75;;;2.60;;
51907;SDS011;39320;53.214;6.556;2023-07-16T13:34:41;4.57;;;2.53;;
51907;SDS011;39320;53.214;6.556;2023-07-16T13:37:07;5.28;;;2.42;;
51907;SDS011;39320;53.214;6.556;2023-07-16T13:39:32;4.97;;;2.90;;
51907;SDS011;39320;53.214;6.556;2023-07-16T13:41:58;3.67;;;2.28;;
51907;SDS011;39320;53.214;6.556;2023-07-16T13:44:24;4.45;;;1.92;;
51907;SDS011;39320;53.214;6.556;2023-07-16T13:46:50;4.78;;;2.40;;
51907;SDS011;39320;53.214;6.556;2023-07-16T13:49:16;6.60;;;2.45;;
51907;SDS011;39320;53.214;6.556;2023-07-16T13:51:41;2.85;;;1.77;;
51907;SDS011;39320;53.214;6.556;2023-07-16T13:54:09;4.05;;;2.05;;
51907;SDS011;39320;53.214;6.556;2023-07-16T13:56:36;7.15;;;2.15;;
51907;SDS011;39320;53.214;6.556;2023-07-16T13:59:02;5.72;;;1.95;;
51907;SDS011;39320;53.214;6.556;2023-07-16T14:01:29;4.45;;;1.42;;
51907;SDS011;39320;53.214;6.556;2023-07-16T14:03:54;5.20;;;1.88;;
51907;SDS011;39320;53.214;6.556;2023-07-16T14:06:21;3.83;;;1.92;;
51907;SDS011;39320;53.214;6.556;2023-07-16T14:08:46;4.78;;;1.52;;
51907;SDS011;39320;53.214;6.556;2023-07-16T14:11:12;5.13;;;1.55;;
51907;SDS011;39320;53.214;6.556;2023-07-16T14:13:38;5.65;;;1.50;;
51907;SDS011;39320;53.214;6.556;2023-07-16T14:16:04;5.28;;;2.35;;
51907;SDS011;39320;53.214;6.556;2023-07-16T14:18:30;5.47;;;1.83;;
51907;SDS011;39320;53.214;6.556;2023-07-16T14:20:56;6.47;;;1.75;;
51907;SDS011;39320;53.214;6.556;2023-07-16T14:23:22;8.05;;;1.67;;
51907;SDS011;39320;53.214;6.556;2023-07-16T14:25:48;6.07;;;1.80;;
51907;SDS011;39320;53.214;6.556;2023-07-16T14:28:14;5.38;;;1.67;;
51907;SDS011;39320;53.214;6.556;2023-07-16T14:30:39;5.32;;;1.60;;
51907;SDS011;39320;53.214;6.556;2023-07-16T14:33:05;4.90;;;1.63;;
51907;SDS011;39320;53.214;6.556;2023-07-16T14:35:32;5.90;;;1.58;;
51907;SDS011;39320;53.214;6.556;2023-07-16T14:37:59;6.32;;;1.55;;
51907;SDS011;39320;53.214;6.556;2023-07-16T14:40:25;6.05;;;1.58;;
51907;SDS011;39320;53.214;6.556;2023-07-16T14:42:51;5.32;;;1.55;;
51907;SDS011;39320;53.214;6.556;2023-07-16T14:45:17;4.93;;;1.58;;
51907;SDS011;39320;53.214;6.556;2023-07-16T14:47:43;3.88;;;1.00;;
51907;SDS011;39320;53.214;6.556;2023-07-16T14:50:09;4.32;;;1.30;;
51907;SDS011;39320;53.214;6.556;2023-07-16T14:52:34;3.97;;;1.23;;
51907;SDS011;39320;53.214;6.556;2023-07-16T14:55:02;3.47;;;1.15;;
51907;SDS011;39320;53.214;6.556;2023-07-16T14:57:29;4.22;;;1.13;;
51907;SDS011;39320;53.214;6.556;2023-07-16T14:59:55;3.58;;;1.50;;
51907;SDS011;39320;53.214;6.556;2023-07-16T15:02:21;6.30;;;1.20;;
51907;SDS011;39320;53.214;6.556;2023-07-16T15:04:47;4.57;;;1.25;;
51907;SDS011;39320;53.214;6.556;2023-07-16T15:07:13;5.45;;;1.73;;
51907;SDS011;39320;53.214;6.556;2023-07-16T15:09:39;7.32;;;1.92;;